Time;durP1;ratioP1;P1;durP2;ratioP2;P2;SDS_P1;SDS_P2;PMS_P1;PMS_P2;Temp;Humidity;BMP_temperature;BMP_pressure;BME280_temperature;BME280_humidity;BME280_pressure;Samples;Min_cycle;Max_cycle;Signal;HPM_P1;HPM_P2
2021/03/27 00:00:55;;;;;;;;;;;15.90;57.70;;;;;;4880137;29;20355;-60
2021/03/27 00:03:24;;;;;;;;;;;16.10;57.80;;;;;;4896953;29;19913;-61
2021/03/27 00:06:19;;;;;;;;;;;16.00;57.80;;;;;;4899053;29;20359;-61
2021/03/27 00:08:52;;;;;;;;;;;16.10;57.80;;;;;;4833043;29;19908;-60
2021/03/27 00:11:24;;;;;;;;;;;16.10;57.90;;;;;;4900935;29;19968;-60
2021/03/27 00:13:56;;;;;;;;;;;16.10;57.80;;;;;;4900406;29;20398;-60
2021/03/27 00:16:28;;;;;;;;;;;16.00;57.90;;;;;;4900793;29;20009;-60
2021/03/27 00:18:53;;;;;;;;;;;16.00;57.80;;;;;;4882883;29;19917;-60
2021/03/27 00:21:39;;;;;;;;;;;16.00;57.90;;;;;;4899624;29;19919;-60
2021/03/27 00:24:17;;;;;;;;;;;16.00;57.90;;;;;;4899309;29;19930;-60
2021/03/27 00:26:46;;;;;;;;;;;16.50;58.10;;;;;;4900492;29;19915;-60
2021/03/27 00:29:19;;;;;;;;;;;16.00;57.90;;;;;;4900241;29;20581;-60
2021/03/27 00:31:48;;;;;;;;;;;16.00;57.90;;;;;;4900381;29;19915;-60
2021/03/27 00:34:15;;;;;;;;;;;15.80;57.90;;;;;;4900456;29;20317;-60
2021/03/27 00:36:48;;;;;;;;;;;16.00;57.50;;;;;;4900156;29;19927;-60
2021/03/27 00:39:22;;;;;;;;;;;16.00;57.90;;;;;;4900332;29;19911;-60
2021/03/27 00:42:06;;;;;;;;;;;16.00;57.90;;;;;;4900345;29;20043;-60
2021/03/27 00:44:36;;;;;;;;;;;16.00;57.90;;;;;;4900254;29;19943;-60
2021/03/27 00:47:03;;;;;;;;;;;16.00;57.90;;;;;;4900213;29;19918;-60
2021/03/27 00:49:32;;;;;;;;;;;15.90;58.00;;;;;;4899775;29;19919;-60
2021/03/27 00:52:06;;;;;;;;;;;15.80;58.00;;;;;;4900176;29;20041;-60
2021/03/27 00:54:37;;;;;;;;;;;16.00;58.00;;;;;;4899709;29;19962;-60
2021/03/27 00:57:17;;;;;;;;;;;15.90;57.90;;;;;;4899904;29;19911;-60
2021/03/27 01:00:03;;;;;;;;;;;15.90;57.90;;;;;;4899768;29;19911;-60
2021/03/27 01:02:29;;;;;;;;;;;15.90;58.00;;;;;;4886135;29;19918;-60
2021/03/27 01:05:03;;;;;;;;;;;15.70;58.00;;;;;;4899735;29;19907;-60
2021/03/27 01:07:35;;;;;;;;;;;15.80;58.00;;;;;;4883690;29;19915;-61
2021/03/27 01:10:06;;;;;;;;;;;15.90;58.00;;;;;;4899600;29;19911;-60
2021/03/27 01:12:32;;;;;;;;;;;15.90;58.10;;;;;;4899574;29;19919;-59
2021/03/27 01:15:01;;;;;;;;;;;15.90;58.10;;;;;;4899752;29;19930;-60
2021/03/27 01:17:29;;;;;;;;;;;15.70;58.00;;;;;;4898772;29;19911;-61
2021/03/27 01:20:00;;;;;;;;;;;15.80;58.10;;;;;;4900422;29;19915;-60
2021/03/27 01:22:26;;;;;;;;;;;15.90;58.00;;;;;;4899474;29;20426;-61
2021/03/27 01:24:59;;;;;;;;;;;15.70;58.00;;;;;;4899408;29;20295;-60
2021/03/27 01:27:47;;;;;;;;;;;15.80;58.00;;;;;;4899628;29;19963;-60
2021/03/27 01:30:20;;;;;;;;;;;15.80;58.00;;;;;;4899123;29;20010;-60
2021/03/27 01:32:49;;;;;;;;;;;15.80;58.00;;;;;;4899240;29;19915;-61
2021/03/27 01:35:21;;;;;;;;;;;15.80;58.10;;;;;;4899419;29;19914;-61
2021/03/27 01:38:09;;;;;;;;;;;15.80;58.00;;;;;;4899049;29;19976;-60
2021/03/27 01:40:58;;;;;;;;;;;15.80;58.10;;;;;;4888748;29;19908;-60
2021/03/27 01:43:50;;;;;;;;;;;15.80;58.10;;;;;;4888881;29;19911;-60
2021/03/27 01:46:24;;;;;;;;;;;15.80;58.10;;;;;;4895005;29;19946;-60
2021/03/27 01:49:16;;;;;;;;;;;15.70;58.00;;;;;;4899048;29;20001;-60
2021/03/27 01:51:53;;;;;;;;;;;15.70;58.10;;;;;;4869518;29;19979;-60
2021/03/27 01:54:22;;;;;;;;;;;15.80;58.10;;;;;;4899056;29;19913;-61
2021/03/27 01:56:47;;;;;;;;;;;15.70;58.10;;;;;;4898710;29;19907;-60
2021/03/27 01:59:26;;;;;;;;;;;15.70;58.20;;;;;;4898715;29;20385;-60
2021/03/27 02:01:51;;;;;;;;;;;15.80;58.10;;;;;;4898497;29;19911;-60
2021/03/27 02:04:33;;;;;;;;;;;15.70;58.20;;;;;;4898837;29;19915;-60
2021/03/27 02:07:04;;;;;;;;;;;15.70;58.10;;;;;;4898792;29;19912;-60
2021/03/27 02:09:36;;;;;;;;;;;15.70;58.10;;;;;;4898733;29;20001;-61
2021/03/27 02:12:20;;;;;;;;;;;15.70;58.10;;;;;;4898419;29;20542;-60
2021/03/27 02:14:45;;;;;;;;;;;15.70;58.10;;;;;;4898609;29;19908;-61
2021/03/27 02:17:15;;;;;;;;;;;15.60;58.20;;;;;;4898377;29;19917;-60
2021/03/27 02:19:41;;;;;;;;;;;16.40;58.60;;;;;;4899337;29;19918;-60
2021/03/27 02:22:14;;;;;;;;;;;15.70;58.20;;;;;;4898575;29;19911;-61
2021/03/27 02:24:57;;;;;;;;;;;15.70;58.20;;;;;;4898448;29;20299;-60
2021/03/27 02:27:33;;;;;;;;;;;15.70;58.20;;;;;;4898361;29;19963;-60
2021/03/27 02:30:05;;;;;;;;;;;15.70;58.20;;;;;;4881441;29;20260;-60
2021/03/27 02:32:36;;;;;;;;;;;15.60;58.20;;;;;;4898067;29;19963;-60
2021/03/27 02:35:08;;;;;;;;;;;15.60;58.20;;;;;;4898206;29;20018;-60
2021/03/27 02:37:39;;;;;;;;;;;15.60;58.30;;;;;;4898184;29;19954;-61
2021/03/27 02:40:13;;;;;;;;;;;15.60;58.20;;;;;;4897971;29;19912;-60
2021/03/27 02:42:48;;;;;;;;;;;15.60;58.20;;;;;;4898106;29;20271;-60
2021/03/27 02:45:16;;;;;;;;;;;15.60;58.20;;;;;;4897876;29;20268;-61
2021/03/27 02:47:49;;;;;;;;;;;15.60;58.20;;;;;;4898010;29;19911;-60
2021/03/27 02:50:33;;;;;;;;;;;15.60;58.30;;;;;;4897870;29;20370;-60
2021/03/27 02:53:10;;;;;;;;;;;15.60;58.30;;;;;;4897608;29;20018;-60
2021/03/27 02:55:42;;;;;;;;;;;15.60;58.20;;;;;;4897499;29;20003;-60
2021/03/27 02:58:16;;;;;;;;;;;15.60;58.20;;;;;;4897689;29;19911;-61
2021/03/27 03:00:53;;;;;;;;;;;15.60;58.30;;;;;;4897626;29;19911;-61
2021/03/27 03:03:41;;;;;;;;;;;15.50;58.20;;;;;;4897425;29;19930;-60
2021/03/27 03:06:15;;;;;;;;;;;15.60;58.30;;;;;;4897300;29;19907;-60
2021/03/27 03:09:00;;;;;;;;;;;15.60;58.40;;;;;;4897225;29;19907;-60
2021/03/27 03:11:33;;;;;;;;;;;15.50;58.30;;;;;;4896615;29;19912;-61
2021/03/27 03:14:05;;;;;;;;;;;15.50;58.20;;;;;;4897396;29;19959;-61
2021/03/27 03:16:36;;;;;;;;;;;15.60;58.40;;;;;;4897332;29;19923;-61
2021/03/27 03:19:10;;;;;;;;;;;15.40;58.30;;;;;;4897641;29;19912;-61
2021/03/27 03:21:42;;;;;;;;;;;15.50;58.30;;;;;;4898215;29;19919;-61
2021/03/27 03:24:37;;;;;;;;;;;15.50;58.30;;;;;;4897235;29;20403;-61
2021/03/27 03:27:18;;;;;;;;;;;15.50;58.30;;;;;;4880867;29;19907;-60
2021/03/27 03:30:02;;;;;;;;;;;15.50;58.30;;;;;;4897544;29;19923;-60
2021/03/27 03:32:54;;;;;;;;;;;15.50;58.40;;;;;;4897346;29;19916;-61
2021/03/27 03:35:35;;;;;;;;;;;15.50;58.40;;;;;;4868144;29;19912;-61
2021/03/27 03:38:19;;;;;;;;;;;15.50;58.30;;;;;;4897043;29;19955;-61
2021/03/27 03:41:04;;;;;;;;;;;15.50;58.40;;;;;;4901580;29;19911;-60
2021/03/27 03:43:35;;;;;;;;;;;15.40;58.30;;;;;;4903403;29;19919;-60
2021/03/27 03:46:10;;;;;;;;;;;15.30;58.30;;;;;;4903378;29;19914;-61
2021/03/27 03:48:48;;;;;;;;;;;15.50;58.30;;;;;;4903630;29;19955;-60
2021/03/27 03:51:19;;;;;;;;;;;15.50;58.30;;;;;;4903297;29;20001;-60
2021/03/27 03:53:48;;;;;;;;;;;15.70;58.60;;;;;;4903737;29;19912;-60
2021/03/27 03:56:18;;;;;;;;;;;15.40;58.40;;;;;;4903316;29;20316;-60
2021/03/27 03:58:43;;;;;;;;;;;15.40;58.40;;;;;;4903318;29;19907;-60
2021/03/27 04:01:15;;;;;;;;;;;15.40;58.50;;;;;;4903637;29;20026;-61
2021/03/27 04:03:53;;;;;;;;;;;15.40;58.40;;;;;;4903247;29;19936;-61
2021/03/27 04:06:23;;;;;;;;;;;15.40;58.40;;;;;;4903623;29;20322;-60
2021/03/27 04:08:52;;;;;;;;;;;15.40;58.40;;;;;;4903410;29;19911;-61
2021/03/27 04:11:27;;;;;;;;;;;15.30;58.50;;;;;;4903396;29;19911;-60
2021/03/27 04:13:53;;;;;;;;;;;15.40;58.50;;;;;;4903097;29;19911;-61
2021/03/27 04:16:21;;;;;;;;;;;15.30;58.50;;;;;;4903265;29;19907;-61
2021/03/27 04:19:09;;;;;;;;;;;15.40;58.50;;;;;;4886560;29;20033;-61
2021/03/27 04:21:34;;;;;;;;;;;15.40;58.50;;;;;;4904289;29;20294;-60
2021/03/27 04:24:00;;;;;;;;;;;15.40;58.50;;;;;;4886126;29;19907;-61
2021/03/27 04:26:37;;;;;;;;;;;15.30;58.50;;;;;;4886092;29;19955;-60
2021/03/27 04:29:27;;;;;;;;;;;15.30;58.40;;;;;;4903081;29;19907;-61
2021/03/27 04:32:07;;;;;;;;;;;15.30;58.40;;;;;;4903290;29;19915;-60
2021/03/27 04:34:42;;;;;;;;;;;15.40;58.50;;;;;;4903223;29;20270;-60
2021/03/27 04:37:10;;;;;;;;;;;15.40;58.40;;;;;;4903331;29;19915;-61
2021/03/27 04:39:45;;;;;;;;;;;15.30;58.40;;;;;;4903098;29;19907;-61
2021/03/27 04:42:15;;;;;;;;;;;15.30;58.40;;;;;;4903364;29;20295;-60
2021/03/27 04:44:48;;;;;;;;;;;15.90;58.80;;;;;;4903071;29;19907;-61
2021/03/27 04:47:25;;;;;;;;;;;15.30;58.50;;;;;;4902965;29;19914;-60
2021/03/27 04:50:08;;;;;;;;;;;15.30;58.40;;;;;;4903254;29;20014;-61
2021/03/27 04:52:38;;;;;;;;;;;15.30;58.40;;;;;;4900187;29;19965;-61
2021/03/27 04:55:21;;;;;;;;;;;15.30;59.00;;;;;;4900243;29;19956;-61
2021/03/27 04:57:52;;;;;;;;;;;15.30;58.40;;;;;;4899920;29;19950;-61
2021/03/27 05:00:23;;;;;;;;;;;15.30;58.40;;;;;;4899787;29;19911;-61
2021/03/27 05:03:03;;;;;;;;;;;15.30;58.40;;;;;;4899688;29;20401;-60
2021/03/27 05:05:29;;;;;;;;;;;15.20;58.40;;;;;;4899745;29;19915;-61
2021/03/27 05:08:09;;;;;;;;;;;15.60;58.60;;;;;;4899650;29;19911;-60
2021/03/27 05:10:38;;;;;;;;;;;15.20;58.40;;;;;;4899687;29;20023;-61
2021/03/27 05:13:13;;;;;;;;;;;15.20;58.70;;;;;;4899524;29;19966;-61
2021/03/27 05:15:44;;;;;;;;;;;15.20;58.40;;;;;;4899460;29;19955;-61
2021/03/27 05:18:28;;;;;;;;;;;15.10;58.40;;;;;;4899553;29;19975;-61
2021/03/27 05:20:58;;;;;;;;;;;15.20;58.30;;;;;;4900126;29;19975;-61
2021/03/27 05:23:46;;;;;;;;;;;15.20;58.40;;;;;;4899553;29;19907;-60
2021/03/27 05:26:27;;;;;;;;;;;15.20;58.30;;;;;;4899355;29;20002;-61
2021/03/27 05:29:00;;;;;;;;;;;15.20;58.30;;;;;;4899382;29;19914;-61
2021/03/27 05:31:29;;;;;;;;;;;15.20;58.40;;;;;;4899484;29;19915;-61
2021/03/27 05:34:21;;;;;;;;;;;15.20;58.40;;;;;;4899286;29;19959;-61
2021/03/27 05:37:05;;;;;;;;;;;15.20;58.40;;;;;;4882424;29;19911;-60
2021/03/27 05:39:49;;;;;;;;;;;15.20;58.40;;;;;;4899187;29;19912;-61
2021/03/27 05:42:33;;;;;;;;;;;15.20;58.50;;;;;;4899373;29;20003;-61
2021/03/27 05:45:04;;;;;;;;;;;15.10;58.40;;;;;;4898963;29;19908;-61
2021/03/27 05:47:56;;;;;;;;;;;15.20;58.50;;;;;;4898925;29;19946;-61
2021/03/27 05:50:22;;;;;;;;;;;15.20;58.50;;;;;;4882410;29;20322;-60
2021/03/27 05:53:06;;;;;;;;;;;15.10;58.50;;;;;;4898711;29;19919;-62
2021/03/27 05:55:51;;;;;;;;;;;15.10;58.40;;;;;;4882039;29;19918;-61
2021/03/27 05:58:25;;;;;;;;;;;15.10;58.70;;;;;;4898926;29;20365;-61
2021/03/27 06:01:20;;;;;;;;;;;15.10;58.50;;;;;;4898758;29;19919;-61
2021/03/27 06:03:48;;;;;;;;;;;15.10;58.50;;;;;;4830916;29;19924;-60
2021/03/27 06:06:24;;;;;;;;;;;14.00;58.00;;;;;;4898643;29;19911;-61
2021/03/27 06:08:55;;;;;;;;;;;15.10;58.50;;;;;;4898590;29;19927;-61
2021/03/27 06:11:39;;;;;;;;;;;15.10;58.60;;;;;;4898403;29;19915;-61
2021/03/27 06:14:10;;;;;;;;;;;15.10;58.50;;;;;;4898455;29;20392;-61
2021/03/27 06:16:48;;;;;;;;;;;15.10;58.50;;;;;;4898543;29;20287;-61
2021/03/27 06:19:17;;;;;;;;;;;15.10;58.60;;;;;;4898342;29;20267;-61
2021/03/27 06:22:01;;;;;;;;;;;15.10;58.60;;;;;;4898923;29;19919;-61
2021/03/27 06:24:45;;;;;;;;;;;15.10;58.60;;;;;;4898196;29;19907;-61
2021/03/27 06:27:13;;;;;;;;;;;15.10;58.60;;;;;;4881306;29;20001;-60
2021/03/27 06:29:57;;;;;;;;;;;15.10;58.60;;;;;;4881263;29;20275;-60
2021/03/27 06:32:43;;;;;;;;;;;15.10;58.60;;;;;;4898035;29;19915;-61
2021/03/27 06:35:27;;;;;;;;;;;15.10;58.60;;;;;;4897976;29;19908;-61
2021/03/27 06:37:55;;;;;;;;;;;15.10;58.60;;;;;;4897995;29;19907;-60
2021/03/27 06:40:25;;;;;;;;;;;15.10;58.50;;;;;;4897907;29;19912;-60
2021/03/27 06:42:53;;;;;;;;;;;15.10;58.60;;;;;;4898124;29;19911;-60
2021/03/27 06:45:25;;;;;;;;;;;15.10;58.50;;;;;;4897787;29;20366;-61
2021/03/27 06:48:09;;;;;;;;;;;14.90;58.50;;;;;;4898063;29;19950;-61
2021/03/27 06:50:53;;;;;;;;;;;15.10;58.50;;;;;;4897864;29;19950;-61
2021/03/27 06:53:19;;;;;;;;;;;15.10;58.60;;;;;;4897706;29;19915;-60
2021/03/27 06:55:57;;;;;;;;;;;15.10;58.60;;;;;;4897712;29;19946;-60
2021/03/27 06:58:32;;;;;;;;;;;15.00;58.50;;;;;;4897674;29;19994;-60
2021/03/27 07:01:16;;;;;;;;;;;15.00;58.60;;;;;;4897623;29;19935;-61
2021/03/27 07:03:45;;;;;;;;;;;15.00;58.50;;;;;;4897592;29;19907;-61
2021/03/27 07:06:25;;;;;;;;;;;15.00;58.60;;;;;;4897557;29;19912;-59
2021/03/27 07:09:23;;;;;;;;;;;15.00;58.50;;;;;;4897620;29;19912;-60
2021/03/27 07:12:01;;;;;;;;;;;15.00;58.50;;;;;;4897307;29;19915;-60
2021/03/27 07:14:45;;;;;;;;;;;15.00;58.50;;;;;;4896738;29;20430;-59
2021/03/27 07:17:26;;;;;;;;;;;15.00;58.50;;;;;;4897432;29;19907;-60
2021/03/27 07:19:53;;;;;;;;;;;15.00;58.60;;;;;;4898358;29;19908;-60
2021/03/27 07:22:28;;;;;;;;;;;14.90;58.60;;;;;;4903620;29;20013;-60
2021/03/27 07:24:53;;;;;;;;;;;15.00;58.60;;;;;;4897315;29;19997;-60
2021/03/27 07:27:28;;;;;;;;;;;14.90;58.70;;;;;;4897236;29;19967;-61
2021/03/27 07:30:12;;;;;;;;;;;15.00;58.60;;;;;;4880308;29;20363;-60
2021/03/27 07:32:38;;;;;;;;;;;15.00;58.60;;;;;;4897100;29;19971;-59
2021/03/27 07:35:03;;;;;;;;;;;15.20;58.80;;;;;;4897143;29;19943;-59
2021/03/27 07:37:29;;;;;;;;;;;14.90;58.80;;;;;;4897043;29;20358;-59
2021/03/27 07:40:05;;;;;;;;;;;15.00;58.70;;;;;;4880332;29;19907;-58
2021/03/27 07:42:49;;;;;;;;;;;14.80;58.50;;;;;;4897106;29;19959;-59
2021/03/27 07:45:29;;;;;;;;;;;15.00;58.50;;;;;;4897078;29;19907;-58
2021/03/27 07:48:00;;;;;;;;;;;15.00;58.50;;;;;;4880255;29;19908;-57
2021/03/27 07:50:44;;;;;;;;;;;14.80;58.50;;;;;;4897230;29;20002;-59
2021/03/27 07:53:09;;;;;;;;;;;15.00;58.60;;;;;;4896934;29;19921;-58
2021/03/27 07:55:35;;;;;;;;;;;15.00;58.70;;;;;;4896751;29;20010;-57
2021/03/27 07:58:19;;;;;;;;;;;15.10;58.90;;;;;;4895929;29;20132;-57
2021/03/27 08:01:03;;;;;;;;;;;15.10;59.10;;;;;;4880058;29;20351;-57
2021/03/27 08:03:54;;;;;;;;;;;15.10;59.70;;;;;;4896949;29;20347;-59
2021/03/27 08:06:44;;;;;;;;;;;15.20;59.00;;;;;;4896874;29;19935;-59
2021/03/27 08:09:36;;;;;;;;;;;15.10;58.70;;;;;;4896817;29;19907;-59
2021/03/27 08:12:17;;;;;;;;;;;15.20;58.70;;;;;;4867670;29;19919;-59
2021/03/27 08:15:00;;;;;;;;;;;15.20;58.70;;;;;;4896890;29;19963;-58
2021/03/27 08:17:44;;;;;;;;;;;15.10;58.60;;;;;;4896757;29;19915;-58
2021/03/27 08:20:13;;;;;;;;;;;15.20;58.90;;;;;;4897415;29;19952;-57
2021/03/27 08:22:42;;;;;;;;;;;15.20;58.90;;;;;;4896605;29;20426;-59
2021/03/27 08:25:19;;;;;;;;;;;15.20;58.70;;;;;;4896642;29;19939;-56
2021/03/27 08:27:54;;;;;;;;;;;15.30;58.70;;;;;;4900135;29;19911;-56
2021/03/27 08:30:29;;;;;;;;;;;15.30;58.80;;;;;;4900561;29;19908;-56
2021/03/27 08:33:00;;;;;;;;;;;15.40;59.40;;;;;;4900508;29;19931;-58
2021/03/27 08:35:43;;;;;;;;;;;15.50;58.90;;;;;;4899980;29;19911;-59
2021/03/27 08:38:09;;;;;;;;;;;15.50;58.40;;;;;;4900091;29;20403;-59
2021/03/27 08:41:06;;;;;;;;;;;15.50;58.50;;;;;;4898603;29;19911;-58
2021/03/27 08:43:31;;;;;;;;;;;15.50;58.60;;;;;;4918084;29;19910;-58
2021/03/27 08:46:12;;;;;;;;;;;15.50;58.90;;;;;;4917857;29;19907;-58
2021/03/27 08:48:56;;;;;;;;;;;15.50;58.70;;;;;;4918676;29;19943;-59
2021/03/27 08:51:26;;;;;;;;;;;15.50;58.70;;;;;;4918618;29;19911;-59
2021/03/27 08:53:54;;;;;;;;;;;15.30;58.50;;;;;;4918408;29;19919;-56
2021/03/27 08:56:22;;;;;;;;;;;15.50;58.40;;;;;;4918666;29;19914;-56
2021/03/27 08:58:48;;;;;;;;;;;15.50;58.10;;;;;;4918623;29;19990;-56
2021/03/27 09:01:13;;;;;;;;;;;15.50;58.00;;;;;;4918864;29;20005;-57
2021/03/27 09:04:01;;;;;;;;;;;15.60;57.90;;;;;;4918674;29;19910;-57
2021/03/27 09:06:29;;;;;;;;;;;15.70;57.40;;;;;;4917891;29;19907;-57
2021/03/27 09:09:13;;;;;;;;;;;15.50;57.10;;;;;;4918446;29;19907;-57
2021/03/27 09:11:42;;;;;;;;;;;15.80;57.30;;;;;;4918595;29;19934;-59
2021/03/27 09:14:36;;;;;;;;;;;15.80;57.40;;;;;;4918335;29;19918;-59
2021/03/27 09:17:20;;;;;;;;;;;16.00;57.60;;;;;;4901391;29;19918;-59
2021/03/27 09:19:57;;;;;;;;;;;16.00;58.10;;;;;;4918133;29;19990;-60
2021/03/27 09:22:42;;;;;;;;;;;16.00;58.50;;;;;;4917514;29;19919;-60
2021/03/27 09:25:11;;;;;;;;;;;16.10;58.00;;;;;;4918128;29;19907;-58
2021/03/27 09:27:37;;;;;;;;;;;16.20;58.20;;;;;;4918257;29;20385;-60
2021/03/27 09:30:20;;;;;;;;;;;16.00;58.20;;;;;;4918093;29;19907;-59
2021/03/27 09:32:54;;;;;;;;;;;16.40;57.40;;;;;;4917998;29;20449;-59
2021/03/27 09:35:26;;;;;;;;;;;16.50;57.40;;;;;;4918000;29;19971;-59
2021/03/27 09:37:51;;;;;;;;;;;16.70;57.50;;;;;;4917199;29;19967;-59
2021/03/27 09:40:17;;;;;;;;;;;16.50;57.70;;;;;;4917944;29;19910;-59
2021/03/27 09:43:11;;;;;;;;;;;16.70;58.30;;;;;;4918113;29;19964;-57
2021/03/27 09:45:55;;;;;;;;;;;16.90;57.00;;;;;;4917942;29;19911;-57
2021/03/27 09:48:29;;;;;;;;;;;17.00;56.30;;;;;;4900942;29;20207;-58
2021/03/27 09:51:01;;;;;;;;;;;17.10;57.10;;;;;;4918142;29;19911;-58
2021/03/27 09:53:46;;;;;;;;;;;17.10;56.80;;;;;;4917733;29;20319;-59
2021/03/27 09:56:32;;;;;;;;;;;17.20;57.50;;;;;;4917944;29;20266;-57
2021/03/27 09:59:09;;;;;;;;;;;17.70;57.60;;;;;;4924018;29;19911;-58
2021/03/27 10:01:44;;;;;;;;;;;17.20;57.60;;;;;;4917726;29;19914;-58
2021/03/27 10:04:22;;;;;;;;;;;17.30;57.10;;;;;;4917888;29;19907;-58
2021/03/27 10:06:53;;;;;;;;;;;17.30;57.00;;;;;;4917845;29;19907;-58
2021/03/27 10:09:30;;;;;;;;;;;17.30;57.00;;;;;;4900569;29;19914;-57
2021/03/27 10:12:12;;;;;;;;;;;17.50;57.00;;;;;;4900303;29;20445;-59
2021/03/27 10:14:43;;;;;;;;;;;17.50;57.00;;;;;;4917225;29;19922;-58
2021/03/27 10:17:28;;;;;;;;;;;17.50;57.00;;;;;;4917289;29;19907;-59
2021/03/27 10:20:00;;;;;;;;;;;17.60;57.10;;;;;;4917285;29;19994;-60
2021/03/27 10:22:28;;;;;;;;;;;17.60;56.50;;;;;;4917882;29;20259;-57
2021/03/27 10:24:58;;;;;;;;;;;17.70;55.90;;;;;;4917176;29;19907;-57
2021/03/27 10:27:32;;;;;;;;;;;17.50;55.50;;;;;;4917380;29;19914;-58
2021/03/27 10:30:04;;;;;;;;;;;17.70;54.90;;;;;;4917380;29;19962;-57
2021/03/27 10:32:29;;;;;;;;;;;17.70;55.00;;;;;;4923407;29;20446;-60
2021/03/27 10:35:00;;;;;;;;;;;17.70;55.90;;;;;;4917027;29;19907;-59
2021/03/27 10:37:34;;;;;;;;;;;17.80;55.60;;;;;;4900061;29;19907;-59
2021/03/27 10:40:19;;;;;;;;;;;17.80;55.40;;;;;;4917149;29;20005;-58
2021/03/27 10:43:02;;;;;;;;;;;17.90;55.00;;;;;;4916809;29;19994;-57
2021/03/27 10:45:35;;;;;;;;;;;17.90;54.80;;;;;;4916961;29;19943;-58
2021/03/27 10:48:03;;;;;;;;;;;17.90;54.90;;;;;;4900134;29;19907;-59
2021/03/27 10:50:35;;;;;;;;;;;18.00;55.40;;;;;;4916674;29;19907;-59
2021/03/27 10:53:13;;;;;;;;;;;18.00;56.00;;;;;;4916804;29;20112;-57
2021/03/27 10:55:58;;;;;;;;;;;18.00;56.80;;;;;;4916535;29;19914;-60
2021/03/27 10:58:33;;;;;;;;;;;18.10;57.60;;;;;;4916661;29;20330;-58
2021/03/27 11:00:58;;;;;;;;;;;18.10;58.50;;;;;;4915057;29;19914;-59
2021/03/27 11:03:42;;;;;;;;;;;18.10;58.50;;;;;;4915837;29;19907;-59
2021/03/27 11:06:13;;;;;;;;;;;18.00;58.70;;;;;;4916444;29;19938;-60
2021/03/27 11:08:42;;;;;;;;;;;18.50;60.10;;;;;;4916493;29;19907;-60
2021/03/27 11:11:14;;;;;;;;;;;18.10;61.20;;;;;;4916684;29;19907;-60
2021/03/27 11:13:49;;;;;;;;;;;18.10;61.40;;;;;;4916189;29;19915;-59
2021/03/27 11:16:26;;;;;;;;;;;18.20;61.50;;;;;;4915882;29;19952;-59
2021/03/27 11:19:00;;;;;;;;;;;18.10;61.40;;;;;;4916368;29;19914;-58
2021/03/27 11:21:44;;;;;;;;;;;17.90;61.60;;;;;;4916766;29;20334;-59
2021/03/27 11:24:34;;;;;;;;;;;18.20;61.80;;;;;;4916246;29;19911;-59
2021/03/27 11:27:00;;;;;;;;;;;18.10;61.60;;;;;;4915484;29;20366;-61
2021/03/27 11:29:44;;;;;;;;;;;18.50;62.70;;;;;;4935321;29;19913;-56
2021/03/27 11:32:09;;;;;;;;;;;18.10;62.80;;;;;;4935161;29;19915;-58
2021/03/27 11:34:41;;;;;;;;;;;17.90;62.40;;;;;;4934003;29;19929;-57
2021/03/27 11:37:18;;;;;;;;;;;18.10;62.50;;;;;;4935291;29;19911;-58
2021/03/27 11:39:48;;;;;;;;;;;18.10;62.40;;;;;;4934930;29;19928;-56
2021/03/27 11:42:26;;;;;;;;;;;18.20;62.80;;;;;;4934926;29;19913;-56
2021/03/27 11:44:57;;;;;;;;;;;18.00;63.40;;;;;;4917841;29;19914;-56
2021/03/27 11:47:30;;;;;;;;;;;18.00;64.00;;;;;;4934498;29;19939;-57
2021/03/27 11:50:19;;;;;;;;;;;17.70;64.10;;;;;;4934944;29;19918;-57
2021/03/27 11:52:50;;;;;;;;;;;17.90;64.60;;;;;;4929203;29;19915;-57
2021/03/27 11:55:24;;;;;;;;;;;17.90;65.10;;;;;;4934761;29;20553;-56
2021/03/27 11:57:52;;;;;;;;;;;17.90;65.40;;;;;;4917732;29;19971;-57
2021/03/27 12:03:27;;;;;;;;;;;17.80;65.80;;;;;;4939056;29;19963;-57
2021/03/27 12:05:55;;;;;;;;;;;17.80;66.50;;;;;;4938637;29;19969;-57
2021/03/27 12:08:44;;;;;;;;;;;17.60;66.20;;;;;;4938533;29;19914;-57
2021/03/27 12:11:27;;;;;;;;;;;17.80;66.40;;;;;;4919756;29;19970;-56
2021/03/27 12:14:12;;;;;;;;;;;17.70;66.60;;;;;;4921360;29;19938;-55
2021/03/27 12:16:56;;;;;;;;;;;17.70;66.80;;;;;;4938407;29;20445;-56
2021/03/27 12:19:37;;;;;;;;;;;17.70;66.90;;;;;;4938294;29;19963;-55
2021/03/27 12:22:02;;;;;;;;;;;17.70;67.00;;;;;;4937931;29;19919;-56
2021/03/27 12:24:31;;;;;;;;;;;17.60;67.30;;;;;;4938283;29;19907;-55
2021/03/27 12:27:15;;;;;;;;;;;17.60;67.40;;;;;;4938171;29;19910;-56
2021/03/27 12:29:59;;;;;;;;;;;17.60;67.50;;;;;;4921076;29;20358;-56
2021/03/27 12:32:24;;;;;;;;;;;17.50;67.60;;;;;;4938079;29;20077;-56
2021/03/27 12:34:54;;;;;;;;;;;18.30;68.40;;;;;;4937971;29;20378;-56
2021/03/27 12:37:29;;;;;;;;;;;17.20;67.80;;;;;;4938147;29;20330;-56
2021/03/27 12:39:54;;;;;;;;;;;17.40;67.90;;;;;;4938015;29;19997;-56
2021/03/27 12:42:26;;;;;;;;;;;17.40;68.20;;;;;;4938132;29;20030;-56
2021/03/27 12:44:56;;;;;;;;;;;17.40;68.30;;;;;;4937991;29;19915;-56
2021/03/27 12:47:22;;;;;;;;;;;17.40;68.40;;;;;;4938185;29;19957;-52
2021/03/27 12:49:53;;;;;;;;;;;17.10;67.30;;;;;;4937895;29;19965;-52
2021/03/27 12:52:35;;;;;;;;;;;17.30;67.40;;;;;;4938052;29;20009;-51
2021/03/27 12:55:04;;;;;;;;;;;17.30;66.90;;;;;;4937752;29;20378;-56
2021/03/27 12:57:38;;;;;;;;;;;17.30;66.10;;;;;;4937715;29;20489;-57
2021/03/27 13:00:07;;;;;;;;;;;17.30;67.70;;;;;;4920514;29;19907;-57
2021/03/27 13:02:39;;;;;;;;;;;17.30;67.50;;;;;;4937665;29;20317;-59
2021/03/27 13:05:22;;;;;;;;;;;17.30;67.60;;;;;;4937553;29;19957;-57
2021/03/27 13:07:54;;;;;;;;;;;17.20;67.80;;;;;;4937750;29;20355;-59
2021/03/27 13:10:19;;;;;;;;;;;17.20;68.10;;;;;;4937522;29;19906;-58
2021/03/27 13:13:00;;;;;;;;;;;17.20;68.40;;;;;;4936207;29;20283;-58
2021/03/27 13:15:41;;;;;;;;;;;17.20;68.60;;;;;;4937165;29;19913;-58
2021/03/27 13:18:07;;;;;;;;;;;17.20;68.60;;;;;;4937792;29;19911;-59
2021/03/27 13:20:47;;;;;;;;;;;17.00;68.80;;;;;;4936987;29;19907;-58
2021/03/27 13:23:16;;;;;;;;;;;17.20;69.00;;;;;;4937449;29;19914;-59
2021/03/27 13:25:47;;;;;;;;;;;16.90;68.90;;;;;;4920201;29;20606;-59
2021/03/27 13:28:13;;;;;;;;;;;17.20;69.10;;;;;;4920242;29;19915;-59
2021/03/27 13:30:38;;;;;;;;;;;17.10;69.20;;;;;;4920203;29;20011;-58
2021/03/27 13:33:12;;;;;;;;;;;17.00;69.30;;;;;;4937057;29;19937;-59
2021/03/27 13:35:50;;;;;;;;;;;17.20;69.40;;;;;;4937262;29;19907;-59
2021/03/27 13:38:22;;;;;;;;;;;17.10;69.50;;;;;;4937123;29;19907;-58
2021/03/27 13:40:49;;;;;;;;;;;17.00;69.50;;;;;;4919969;29;19907;-59
2021/03/27 13:43:21;;;;;;;;;;;16.90;69.50;;;;;;4936866;29;20365;-59
2021/03/27 13:45:55;;;;;;;;;;;17.10;69.60;;;;;;4936966;29;19910;-59
2021/03/27 13:48:24;;;;;;;;;;;17.10;69.70;;;;;;4919881;29;19961;-58
2021/03/27 13:51:08;;;;;;;;;;;17.10;69.70;;;;;;4937072;29;19975;-58
2021/03/27 13:53:52;;;;;;;;;;;17.10;69.80;;;;;;4936710;29;19954;-59
2021/03/27 13:56:25;;;;;;;;;;;17.10;69.80;;;;;;4936991;29;19911;-59
2021/03/27 13:58:59;;;;;;;;;;;17.10;69.80;;;;;;4936977;29;19914;-59
2021/03/27 14:01:28;;;;;;;;;;;17.00;69.90;;;;;;4936553;29;19907;-57
2021/03/27 14:04:03;;;;;;;;;;;17.00;69.90;;;;;;4936606;29;19907;-57
2021/03/27 14:06:38;;;;;;;;;;;17.10;70.00;;;;;;4936808;29;20009;-59
2021/03/27 14:09:07;;;;;;;;;;;17.00;69.90;;;;;;4919317;29;20270;-57
2021/03/27 14:11:52;;;;;;;;;;;17.00;70.50;;;;;;4936502;29;19994;-58
2021/03/27 14:14:20;;;;;;;;;;;17.00;69.90;;;;;;4936762;29;19914;-58
2021/03/27 14:17:04;;;;;;;;;;;17.20;70.10;;;;;;4919364;29;20380;-59
2021/03/27 14:19:52;;;;;;;;;;;17.00;69.90;;;;;;4936200;29;19985;-59
2021/03/27 14:22:24;;;;;;;;;;;17.00;69.90;;;;;;4918190;29;20284;-59
2021/03/27 14:25:15;;;;;;;;;;;16.90;69.90;;;;;;4935976;29;19907;-60
2021/03/27 14:28:04;;;;;;;;;;;17.00;69.90;;;;;;4933324;29;20265;-57
2021/03/27 14:30:30;;;;;;;;;;;16.90;69.90;;;;;;4928364;29;19915;-58
2021/03/27 14:33:13;;;;;;;;;;;16.90;70.00;;;;;;4936009;29;19916;-57
2021/03/27 14:35:56;;;;;;;;;;;16.90;69.90;;;;;;4918929;29;19958;-58
2021/03/27 14:38:39;;;;;;;;;;;16.90;69.90;;;;;;4935993;29;19981;-57
2021/03/27 14:41:21;;;;;;;;;;;16.90;69.80;;;;;;4935900;29;19914;-57
2021/03/27 14:43:52;;;;;;;;;;;16.90;69.90;;;;;;4936132;29;19914;-58
2021/03/27 14:46:27;;;;;;;;;;;16.90;69.80;;;;;;4935889;29;19911;-58
2021/03/27 14:49:05;;;;;;;;;;;16.80;69.80;;;;;;4936010;29;19907;-57
2021/03/27 14:51:36;;;;;;;;;;;16.90;69.90;;;;;;4935849;29;19907;-57
2021/03/27 14:54:24;;;;;;;;;;;16.90;69.80;;;;;;4935625;29;19922;-57
2021/03/27 14:57:01;;;;;;;;;;;16.90;69.80;;;;;;4935434;29;19907;-57
2021/03/27 14:59:31;;;;;;;;;;;16.80;69.70;;;;;;4935539;29;19913;-58
2021/03/27 15:02:29;;;;;;;;;;;16.90;69.80;;;;;;4935553;29;19911;-58
2021/03/27 15:05:12;;;;;;;;;;;16.90;69.60;;;;;;4903117;29;19906;-58
2021/03/27 15:07:40;;;;;;;;;;;16.90;69.60;;;;;;4935630;29;19911;-58